createdAt,value
2018-12-14T00:01:39.226Z,67.85
2018-12-14T00:04:09.804Z,68.12
2018-12-14T00:06:40.719Z,67.41
2018-12-14T00:09:09.080Z,67.51
2018-12-14T00:11:45.374Z,67.14
2018-12-14T00:14:10.034Z,66.89
2018-12-14T00:16:39.593Z,65.91
2018-12-14T00:19:07.889Z,66.43
2018-12-14T00:21:36.133Z,65.76
2018-12-14T00:24:07.520Z,66.41
2018-12-14T00:26:35.834Z,65.42
2018-12-14T00:29:04.063Z,64.40
2018-12-14T00:31:33.005Z,64.48
2018-12-14T00:34:01.898Z,63.74
2018-12-14T00:36:30.227Z,63.71
2018-12-14T00:38:58.657Z,64.67
2018-12-14T00:41:26.967Z,62.99
2018-12-14T00:43:55.643Z,64.14
2018-12-14T00:46:23.952Z,63.54
2018-12-14T00:48:55.113Z,63.23
2018-12-14T00:51:23.519Z,64.11
2018-12-14T00:53:51.815Z,63.89
2018-12-14T00:56:20.437Z,65.05
2018-12-14T00:58:48.768Z,63.98
2018-12-14T01:01:17.163Z,63.73
2018-12-14T01:03:45.465Z,65.05
2018-12-14T01:06:14.297Z,63.33
2018-12-14T01:08:42.646Z,64.23
2018-12-14T01:11:12.154Z,64.04
2018-12-14T01:13:40.842Z,63.85
2018-12-14T01:16:09.557Z,64.73
2018-12-14T01:18:37.976Z,64.21
2018-12-14T01:21:06.580Z,64.05
2018-12-14T01:23:35.445Z,65.96
2018-12-14T01:26:04.119Z,63.79
2018-12-14T01:28:32.983Z,63.93
2018-12-14T01:31:01.353Z,63.72
2018-12-14T01:33:29.582Z,64.75
2018-12-14T01:35:57.897Z,64.74
2018-12-14T01:38:26.804Z,63.73
2018-12-14T01:40:55.469Z,64.38
2018-12-14T01:43:24.073Z,64.65
2018-12-14T01:45:52.469Z,63.41
2018-12-14T01:48:21.667Z,64.72
2018-12-14T01:50:50.006Z,64.53
2018-12-14T01:53:18.612Z,65.13
2018-12-14T01:55:47.448Z,65.27
2018-12-14T01:58:15.954Z,64.51
2018-12-14T02:00:44.953Z,65.33
2018-12-14T02:03:13.302Z,64.46
2018-12-14T02:05:41.622Z,64.10
2018-12-14T02:08:10.209Z,63.74
2018-12-14T02:10:38.596Z,63.03
2018-12-14T02:13:06.844Z,64.74
2018-12-14T02:15:35.136Z,64.52
2018-12-14T02:18:03.644Z,63.86
2018-12-14T02:20:32.496Z,63.62
2018-12-14T02:23:01.296Z,63.10
2018-12-14T02:25:30.885Z,64.76
2018-12-14T02:27:59.090Z,62.88
2018-12-14T02:30:43.628Z,63.40
2018-12-14T02:33:13.483Z,63.42
2018-12-14T02:35:41.978Z,63.63
2018-12-14T02:38:11.644Z,64.45
2018-12-14T02:40:41.369Z,63.84
2018-12-14T02:43:09.882Z,64.21
2018-12-14T02:45:38.486Z,64.23
2018-12-14T02:48:06.828Z,63.40
2018-12-14T02:50:36.654Z,64.07
2018-12-14T02:53:04.999Z,62.89
2018-12-14T02:55:33.361Z,63.34
2018-12-14T02:58:01.941Z,62.51
2018-12-14T03:00:30.885Z,60.81
2018-12-14T03:02:59.540Z,61.44
2018-12-14T03:05:28.223Z,61.56
2018-12-14T03:07:57.042Z,61.48
2018-12-14T03:10:25.463Z,62.22
2018-12-14T03:12:53.836Z,63.30
2018-12-14T03:15:23.203Z,61.93
2018-12-14T03:17:51.492Z,61.92
2018-12-14T03:20:20.207Z,61.96
2018-12-14T03:22:48.559Z,62.17
2018-12-14T03:25:17.076Z,62.33
2018-12-14T03:27:46.854Z,61.41
2018-12-14T03:30:15.336Z,62.46
2018-12-14T03:32:44.821Z,62.43
2018-12-14T03:35:13.564Z,61.88
2018-12-14T03:37:41.831Z,61.73
2018-12-14T03:40:10.112Z,62.07
2018-12-14T03:42:41.196Z,62.03
2018-12-14T03:45:11.726Z,62.02
2018-12-14T03:47:40.380Z,62.22
2018-12-14T03:50:08.703Z,62.06
2018-12-14T03:52:37.120Z,62.09
2018-12-14T03:55:05.581Z,62.35
2018-12-14T03:57:34.859Z,63.31
2018-12-14T04:00:03.541Z,61.79
2018-12-14T04:02:32.349Z,61.65
2018-12-14T04:05:00.735Z,62.13
2018-12-14T04:07:29.103Z,62.27
2018-12-14T04:09:57.799Z,61.57
2018-12-14T04:12:26.084Z,62.55
2018-12-14T04:14:54.521Z,63.21
2018-12-14T04:17:22.790Z,62.22
2018-12-14T04:19:51.592Z,62.61
2018-12-14T04:22:20.203Z,61.87
2018-12-14T04:24:49.058Z,61.70
2018-12-14T04:27:17.821Z,61.85
2018-12-14T04:29:46.327Z,61.98
2018-12-14T04:32:14.609Z,62.43
2018-12-14T04:34:43.242Z,62.62
2018-12-14T04:37:11.536Z,62.18
2018-12-14T04:39:39.812Z,63.21
2018-12-14T04:42:08.408Z,61.43
2018-12-14T04:44:37.015Z,62.51
2018-12-14T04:47:05.370Z,61.83
2018-12-14T04:49:40.687Z,61.79
2018-12-14T04:52:11.121Z,61.94
2018-12-14T04:54:39.590Z,63.23
2018-12-14T04:57:08.009Z,63.62
2018-12-14T04:59:36.259Z,61.55
2018-12-14T05:02:04.519Z,62.35
2018-12-14T05:04:33.036Z,62.94
2018-12-14T05:07:01.365Z,61.34
2018-12-14T05:09:29.911Z,60.64
2018-12-14T05:11:58.360Z,61.26
2018-12-14T05:14:27.164Z,62.90
2018-12-14T05:16:55.729Z,62.04
2018-12-14T05:19:24.336Z,61.81
2018-12-14T05:21:53.345Z,62.86
2018-12-14T05:24:21.992Z,61.30
2018-12-14T05:26:50.429Z,61.81
2018-12-14T05:29:18.700Z,62.11
2018-12-14T05:31:47.277Z,61.68
2018-12-14T05:34:15.469Z,62.12
2018-12-14T05:36:43.782Z,61.54
2018-12-14T05:39:12.032Z,61.61
2018-12-14T05:41:40.297Z,61.79
2018-12-14T05:44:08.831Z,62.76
2018-12-14T05:46:37.620Z,61.25
2018-12-14T05:49:06.711Z,61.68
2018-12-14T05:51:42.576Z,61.21
2018-12-14T05:54:10.924Z,60.94
2018-12-14T05:56:39.606Z,62.85
2018-12-14T05:59:08.139Z,62.57
2018-12-14T06:01:36.510Z,62.30
2018-12-14T06:04:04.861Z,62.05
2018-12-14T06:06:33.438Z,62.83
2018-12-14T06:09:01.883Z,62.09
2018-12-14T06:11:31.522Z,61.54
2018-12-14T06:13:59.896Z,62.24
2018-12-14T06:16:28.141Z,62.49
2018-12-14T06:18:56.983Z,61.74
2018-12-14T06:21:25.561Z,61.82
2018-12-14T06:23:54.161Z,62.31
2018-12-14T06:26:22.440Z,63.07
2018-12-14T06:28:50.732Z,62.97
2018-12-14T06:31:19.346Z,61.35
2018-12-14T06:33:47.898Z,61.63
2018-12-14T06:36:16.461Z,61.50
2018-12-14T06:38:44.723Z,61.34
2018-12-14T06:41:13.209Z,61.45
2018-12-14T06:43:41.468Z,62.03
2018-12-14T06:46:09.791Z,62.46
2018-12-14T06:48:38.085Z,63.29
2018-12-14T06:51:06.838Z,63.16
2018-12-14T06:53:35.088Z,61.46
2018-12-14T06:56:03.570Z,63.74
2018-12-14T06:58:32.574Z,61.84
2018-12-14T07:01:01.621Z,63.04
2018-12-14T07:03:30.282Z,62.66
2018-12-14T07:05:58.520Z,62.68
2018-12-14T07:08:26.794Z,62.24
2018-12-14T07:10:54.978Z,62.59
2018-12-14T07:13:23.266Z,62.63
2018-12-14T07:15:52.492Z,63.51
2018-12-14T07:18:21.198Z,62.97
2018-12-14T07:20:49.608Z,62.81
2018-12-14T07:23:18.109Z,62.46
2018-12-14T07:25:46.357Z,61.72
2018-12-14T07:28:15.167Z,62.22
2018-12-14T07:30:43.605Z,62.99
2018-12-14T07:33:11.868Z,62.77
2018-12-14T07:35:42.059Z,62.62
2018-12-14T07:38:10.861Z,62.55
2018-12-14T07:40:39.093Z,62.70
2018-12-14T07:43:07.685Z,63.04
2018-12-14T07:45:36.273Z,61.85
2018-12-14T07:48:04.651Z,63.69
2018-12-14T07:50:32.933Z,62.01
2018-12-14T07:53:01.750Z,62.75
2018-12-14T07:55:30.016Z,62.75
2018-12-14T07:57:58.381Z,62.94
2018-12-14T08:00:26.960Z,62.79
2018-12-14T08:02:55.633Z,62.69
2018-12-14T08:05:23.831Z,61.94
2018-12-14T08:07:52.178Z,61.59
2018-12-14T08:10:20.910Z,62.29
2018-12-14T08:12:50.337Z,62.59
2018-12-14T08:15:19.309Z,61.43
2018-12-14T08:17:48.268Z,61.86
2018-12-14T08:20:17.222Z,61.00
2018-12-14T08:22:45.844Z,62.11
2018-12-14T08:25:15.129Z,60.68
2018-12-14T08:27:43.388Z,61.18
2018-12-14T08:30:12.034Z,61.82
2018-12-14T08:32:40.796Z,61.81
2018-12-14T08:35:09.504Z,61.82
2018-12-14T08:37:37.835Z,61.00
2018-12-14T08:40:08.961Z,61.89
2018-12-14T08:42:37.759Z,60.95
2018-12-14T08:45:06.717Z,60.47
2018-12-14T08:47:35.326Z,60.71
2018-12-14T08:50:04.179Z,60.21
2018-12-14T08:52:33.714Z,59.78
2018-12-14T08:55:02.008Z,59.10
2018-12-14T08:57:30.633Z,59.82
2018-12-14T08:59:58.887Z,59.91
2018-12-14T09:02:27.575Z,60.35
2018-12-14T09:04:55.849Z,60.01
2018-12-14T09:07:24.652Z,61.36
2018-12-14T09:09:53.643Z,60.27
2018-12-14T09:12:21.854Z,60.44
2018-12-14T09:14:50.178Z,59.99
2018-12-14T09:17:18.679Z,60.59
2018-12-14T09:19:47.675Z,60.86
2018-12-14T09:22:15.954Z,60.13
2018-12-14T09:24:44.433Z,60.55
2018-12-14T09:27:13.272Z,59.40
2018-12-14T09:29:41.624Z,61.16
2018-12-14T09:32:09.955Z,59.94
2018-12-14T09:34:38.946Z,60.84
2018-12-14T09:37:07.878Z,61.09
2018-12-14T09:39:36.835Z,61.08
2018-12-14T09:42:05.182Z,61.38
2018-12-14T09:44:33.489Z,60.33
2018-12-14T09:47:01.764Z,60.43
2018-12-14T09:49:30.054Z,59.66
2018-12-14T09:51:58.810Z,60.17
2018-12-14T09:54:27.203Z,61.26
2018-12-14T09:56:55.450Z,61.11
2018-12-14T09:59:23.704Z,59.22
2018-12-14T10:01:52.257Z,60.77
2018-12-14T10:04:20.848Z,61.29
2018-12-14T10:06:49.333Z,60.05
2018-12-14T10:09:18.230Z,60.12
2018-12-14T10:11:48.000Z,60.21
2018-12-14T10:14:16.436Z,59.24
2018-12-14T10:16:44.997Z,60.49
2018-12-14T10:19:13.708Z,60.43
2018-12-14T10:21:41.993Z,59.33
2018-12-14T10:24:10.272Z,59.21
2018-12-14T10:26:38.856Z,59.05
2018-12-14T10:29:07.482Z,59.43
2018-12-14T10:31:36.365Z,59.36
2018-12-14T10:34:04.799Z,59.91
2018-12-14T10:36:33.328Z,60.11
2018-12-14T10:39:02.239Z,59.62
2018-12-14T10:41:31.787Z,59.86
2018-12-14T10:44:00.035Z,60.21
2018-12-14T10:46:29.411Z,60.03
2018-12-14T10:48:57.817Z,60.48
2018-12-14T10:51:26.374Z,60.60
2018-12-14T10:53:54.541Z,60.36
2018-12-14T10:56:23.166Z,59.78
2018-12-14T10:58:51.454Z,61.62
2018-12-14T11:01:25.510Z,59.79
2018-12-14T11:03:53.789Z,60.20
2018-12-14T11:06:22.085Z,59.54
2018-12-14T11:08:51.084Z,60.66
2018-12-14T11:11:20.277Z,60.06
2018-12-14T11:13:48.564Z,59.55
2018-12-14T11:16:17.075Z,59.76
2018-12-14T11:18:45.333Z,59.76
2018-12-14T11:21:13.603Z,60.37
2018-12-14T11:23:42.481Z,60.67
2018-12-14T11:26:10.680Z,60.58
2018-12-14T11:28:38.987Z,60.82
2018-12-14T11:31:07.213Z,59.84
2018-12-14T11:33:35.663Z,60.56
2018-12-14T11:36:04.207Z,60.27
2018-12-14T11:38:32.946Z,59.34
2018-12-14T11:41:02.429Z,59.90
2018-12-14T11:43:31.320Z,59.05
2018-12-14T11:46:00.039Z,59.37
2018-12-14T11:48:28.603Z,60.80
2018-12-14T11:51:00.249Z,61.65
2018-12-14T11:53:28.909Z,59.89
2018-12-14T11:55:57.593Z,59.03
2018-12-14T11:58:26.059Z,60.15
2018-12-14T12:00:54.486Z,60.46
2018-12-14T12:03:22.824Z,58.63
2018-12-14T12:05:51.101Z,59.63
2018-12-14T12:08:19.828Z,59.04
2018-12-14T12:10:48.589Z,59.78
2018-12-14T12:13:17.344Z,59.96
2018-12-14T12:15:45.589Z,61.33
2018-12-14T12:18:14.285Z,60.52
2018-12-14T12:20:42.616Z,59.80
2018-12-14T12:23:10.934Z,59.69
2018-12-14T12:25:39.673Z,60.45
2018-12-14T12:28:08.361Z,59.79
2018-12-14T12:30:36.694Z,59.72
2018-12-14T12:33:04.949Z,60.24
2018-12-14T12:35:33.671Z,58.90
2018-12-14T12:38:01.969Z,59.70
2018-12-14T12:40:31.318Z,59.47
2018-12-14T12:42:59.868Z,59.67
2018-12-14T12:45:28.126Z,58.53
2018-12-14T12:47:56.427Z,60.70
2018-12-14T12:50:24.672Z,59.03
2018-12-14T12:52:53.029Z,59.44
2018-12-14T12:55:22.179Z,58.76
2018-12-14T12:57:50.497Z,60.70
2018-12-14T13:00:18.761Z,58.70
2018-12-14T13:02:48.278Z,58.89
2018-12-14T13:05:16.732Z,58.78
2018-12-14T13:07:45.438Z,58.27
2018-12-14T13:10:14.584Z,58.15
2018-12-14T13:12:42.967Z,57.96
2018-12-14T13:15:11.332Z,59.04
2018-12-14T13:17:39.856Z,58.97
2018-12-14T13:20:09.053Z,57.29
2018-12-14T13:22:37.978Z,57.76
2018-12-14T13:25:06.278Z,57.29
2018-12-14T13:27:34.617Z,59.01
2018-12-14T13:32:43.259Z,58.25
2018-12-14T13:35:11.576Z,57.04
2018-12-14T13:37:39.909Z,58.27
2018-12-14T13:40:08.606Z,57.48
2018-12-14T13:42:37.157Z,58.75
2018-12-14T13:45:05.412Z,58.33
2018-12-14T13:47:33.679Z,58.17
2018-12-14T13:50:02.287Z,57.25
2018-12-14T13:52:32.292Z,57.75
2018-12-14T13:55:01.439Z,57.27
2018-12-14T13:57:29.874Z,58.22
2018-12-14T13:59:58.253Z,58.32
2018-12-14T14:02:27.146Z,58.60
2018-12-14T14:04:56.326Z,58.71
2018-12-14T14:07:24.969Z,58.31
2018-12-14T14:09:53.290Z,59.11
2018-12-14T14:12:21.957Z,58.72
2018-12-14T14:14:53.062Z,59.48
2018-12-14T14:17:20.889Z,59.30
2018-12-14T14:19:49.623Z,58.42
2018-12-14T14:24:57.233Z,59.15
2018-12-14T14:27:25.543Z,59.10
2018-12-14T14:29:54.114Z,59.95
2018-12-14T14:32:23.682Z,59.45
2018-12-14T14:34:52.519Z,60.93
2018-12-14T14:37:21.977Z,60.83
2018-12-14T14:39:50.574Z,60.07
2018-12-14T14:42:19.406Z,60.00
2018-12-14T14:44:47.657Z,60.54
2018-12-14T14:47:16.257Z,60.73
2018-12-14T14:49:44.917Z,60.64
2018-12-14T14:52:13.250Z,60.40
2018-12-14T14:54:41.549Z,60.92
2018-12-14T14:57:10.258Z,61.31
2018-12-14T14:59:38.552Z,59.97
2018-12-14T15:02:07.107Z,61.24
2018-12-14T15:04:36.553Z,59.70
2018-12-14T15:07:05.211Z,61.06
2018-12-14T15:09:33.543Z,60.71
2018-12-14T15:12:02.537Z,60.78
2018-12-14T15:14:31.104Z,60.51
2018-12-14T15:16:59.420Z,59.98
2018-12-14T15:19:27.761Z,59.87
2018-12-14T15:21:56.376Z,61.17
2018-12-14T15:24:25.312Z,62.00
2018-12-14T15:26:54.268Z,60.95
2018-12-14T15:29:22.556Z,61.72
2018-12-14T15:31:51.130Z,60.93
2018-12-14T15:34:19.465Z,60.54
2018-12-14T15:36:47.898Z,60.76
2018-12-14T15:39:16.342Z,63.81
2018-12-14T15:41:45.810Z,61.30
2018-12-14T15:44:14.109Z,60.76
2018-12-14T15:46:42.644Z,62.12
2018-12-14T15:49:11.967Z,62.04
2018-12-14T15:51:40.286Z,60.58
2018-12-14T15:54:08.897Z,60.82
2018-12-14T15:56:37.224Z,60.21
2018-12-14T15:59:05.484Z,60.35
2018-12-14T16:01:33.783Z,60.45
2018-12-14T16:04:02.401Z,60.72
2018-12-14T16:06:32.031Z,60.75
2018-12-14T16:09:00.547Z,60.64
2018-12-14T16:11:29.127Z,61.49
2018-12-14T16:13:57.758Z,61.56
2018-12-14T16:16:26.435Z,61.30
2018-12-14T16:18:54.910Z,61.33
2018-12-14T16:21:23.532Z,61.42
2018-12-14T16:23:52.426Z,61.57
2018-12-14T16:26:21.461Z,61.22
2018-12-14T16:28:50.193Z,61.37
2018-12-14T16:31:18.769Z,61.34
2018-12-14T16:33:47.317Z,61.47
2018-12-14T16:36:16.919Z,61.64
2018-12-14T16:38:45.311Z,61.84
2018-12-14T16:41:13.989Z,61.34
2018-12-14T16:43:43.541Z,61.01
2018-12-14T16:46:13.094Z,60.55
2018-12-14T16:51:22.380Z,61.86
2018-12-14T16:53:56.396Z,61.15
2018-12-14T16:56:25.202Z,61.16
2018-12-14T16:58:53.849Z,61.25
2018-12-14T17:01:23.093Z,61.79
2018-12-14T17:03:53.881Z,61.61
2018-12-14T17:06:22.129Z,61.52
2018-12-14T17:08:50.934Z,61.23
2018-12-14T17:11:19.234Z,61.65
2018-12-14T17:13:47.836Z,61.87
2018-12-14T17:16:16.630Z,61.99
2018-12-14T17:18:45.210Z,61.98
2018-12-14T17:21:14.838Z,61.95
2018-12-14T17:23:43.435Z,62.55
2018-12-14T17:26:12.712Z,61.94
2018-12-14T17:28:41.554Z,62.61
2018-12-14T17:31:09.829Z,62.30
2018-12-14T17:33:38.096Z,62.09
2018-12-14T17:36:09.472Z,62.47
2018-12-14T17:38:38.865Z,61.40
2018-12-14T17:41:07.696Z,61.05
2018-12-14T17:43:36.030Z,61.37
2018-12-14T17:46:05.442Z,61.59
2018-12-14T17:48:33.943Z,61.21
2018-12-14T17:51:02.207Z,60.88
2018-12-14T17:53:31.376Z,61.59
2018-12-14T17:55:59.980Z,61.55
2018-12-14T17:58:29.200Z,60.85
2018-12-14T18:00:58.525Z,61.74
2018-12-14T18:03:27.350Z,61.30
2018-12-14T18:05:55.639Z,62.01
2018-12-14T18:08:24.021Z,61.64
2018-12-14T18:10:52.760Z,60.92
2018-12-14T18:13:21.265Z,61.64
2018-12-14T18:15:49.551Z,62.04
2018-12-14T18:18:17.827Z,61.82
2018-12-14T18:20:46.620Z,61.36
2018-12-14T18:23:14.889Z,61.95
2018-12-14T18:25:43.198Z,61.95
2018-12-14T18:28:13.122Z,62.07
2018-12-14T18:30:41.502Z,62.09
2018-12-14T18:33:09.781Z,61.36
2018-12-14T18:35:38.126Z,62.37
2018-12-14T18:38:07.995Z,62.59
2018-12-14T18:40:36.609Z,62.00
2018-12-14T18:43:05.091Z,62.21
2018-12-14T18:45:33.724Z,62.15
2018-12-14T18:48:02.782Z,61.61
2018-12-14T18:50:31.082Z,62.80
2018-12-14T18:52:59.392Z,62.02
2018-12-14T18:55:27.769Z,62.19
2018-12-14T18:57:56.593Z,62.11
2018-12-14T19:00:25.293Z,62.57
2018-12-14T19:02:53.570Z,61.58
2018-12-14T19:05:21.869Z,61.85
2018-12-14T19:07:50.463Z,62.49
2018-12-14T19:10:18.869Z,61.77
2018-12-14T19:12:47.160Z,62.07
2018-12-14T19:17:55.125Z,61.82
2018-12-14T19:20:23.480Z,61.60
2018-12-14T19:22:52.019Z,61.08
2018-12-14T19:25:20.633Z,61.79
2018-12-14T19:27:48.863Z,61.64
2018-12-14T19:30:17.448Z,62.15
2018-12-14T19:32:46.350Z,62.46
2018-12-14T19:35:14.701Z,62.54
2018-12-14T19:37:42.948Z,61.89
2018-12-14T19:40:11.226Z,61.70
2018-12-14T19:42:39.524Z,61.52
2018-12-14T19:45:09.549Z,61.67
2018-12-14T19:47:38.259Z,61.31
2018-12-14T19:50:07.889Z,61.23
2018-12-14T19:52:36.315Z,61.57
2018-12-14T19:55:06.483Z,61.46
2018-12-14T19:57:35.043Z,61.24
2018-12-14T20:00:04.909Z,61.17
2018-12-14T20:02:33.315Z,61.50
2018-12-14T20:05:01.938Z,62.14
2018-12-14T20:10:10.353Z,62.08
2018-12-14T20:12:38.634Z,62.06
2018-12-14T20:15:07.168Z,62.33
2018-12-14T20:17:35.408Z,62.41
2018-12-14T20:20:04.635Z,62.35
2018-12-14T20:22:33.088Z,62.43
2018-12-14T20:25:01.601Z,62.79
2018-12-14T20:27:30.217Z,62.95
2018-12-14T20:29:58.725Z,63.45
2018-12-14T20:32:27.110Z,62.88
2018-12-14T20:34:55.728Z,63.46
2018-12-14T20:37:24.378Z,63.94
2018-12-14T20:39:53.238Z,63.70
2018-12-14T20:42:21.785Z,62.81
2018-12-14T20:44:50.062Z,63.16
2018-12-14T20:47:18.261Z,61.70
2018-12-14T20:49:46.519Z,61.74
2018-12-14T20:52:14.769Z,62.70
2018-12-14T20:54:43.055Z,61.77
2018-12-14T20:57:11.682Z,61.79
2018-12-14T20:59:39.975Z,61.99
2018-12-14T21:02:08.254Z,62.72
2018-12-14T21:04:36.558Z,61.79
2018-12-14T21:07:05.113Z,62.30
2018-12-14T21:09:33.477Z,61.69
2018-12-14T21:12:01.886Z,61.71
2018-12-14T21:14:30.605Z,61.85
2018-12-14T21:16:58.930Z,61.37
2018-12-14T21:19:27.501Z,61.68
2018-12-14T21:21:55.777Z,62.05
2018-12-14T21:24:25.278Z,62.39
2018-12-14T21:26:53.759Z,62.08
2018-12-14T21:29:22.460Z,61.44
2018-12-14T21:31:51.633Z,62.22
2018-12-14T21:34:19.905Z,62.00
2018-12-14T21:36:48.411Z,61.91
2018-12-14T21:39:16.723Z,61.65
2018-12-14T21:41:45.024Z,61.65
2018-12-14T21:44:13.330Z,63.73
2018-12-14T21:46:42.128Z,61.67
2018-12-14T21:49:10.468Z,65.24
2018-12-14T21:51:38.743Z,63.04
2018-12-14T21:54:07.447Z,62.09
2018-12-14T21:56:35.753Z,61.45
2018-12-14T21:59:04.407Z,61.76
2018-12-14T22:01:32.913Z,61.72
2018-12-14T22:04:01.556Z,62.40
2018-12-14T22:06:29.900Z,61.38
2018-12-14T22:08:58.281Z,60.81
2018-12-14T22:11:26.558Z,61.94
2018-12-14T22:13:55.113Z,62.12
2018-12-14T22:16:23.689Z,64.08
2018-12-14T22:18:52.190Z,62.57
2018-12-14T22:21:20.432Z,61.53
2018-12-14T22:23:48.934Z,62.50
2018-12-14T22:26:17.419Z,62.65
2018-12-14T22:28:45.760Z,63.32
2018-12-14T22:31:14.001Z,62.02
2018-12-14T22:33:42.683Z,62.00
2018-12-14T22:36:11.256Z,61.78
2018-12-14T22:38:40.125Z,61.49
2018-12-14T22:41:08.693Z,63.58
2018-12-14T22:43:37.111Z,62.13
2018-12-14T22:46:05.365Z,63.07
2018-12-14T22:48:33.637Z,61.80
2018-12-14T22:51:02.373Z,62.08
2018-12-14T22:53:31.732Z,62.33
2018-12-14T22:56:00.354Z,61.30
2018-12-14T22:58:28.841Z,62.18
2018-12-14T23:00:57.129Z,61.77
2018-12-14T23:03:25.742Z,62.49
2018-12-14T23:05:54.025Z,62.01
2018-12-14T23:08:22.269Z,61.30
2018-12-14T23:10:50.545Z,61.02
2018-12-14T23:13:19.100Z,61.17
2018-12-14T23:15:47.798Z,63.16
2018-12-14T23:18:16.309Z,63.81
2018-12-14T23:20:44.584Z,63.36
2018-12-14T23:23:12.868Z,61.25
2018-12-14T23:25:41.494Z,62.92
2018-12-14T23:28:10.129Z,61.88
2018-12-14T23:30:38.427Z,61.75
2018-12-14T23:33:08.352Z,61.16
2018-12-14T23:35:36.662Z,60.97
2018-12-14T23:38:05.237Z,62.59
2018-12-14T23:40:33.750Z,61.79
2018-12-14T23:43:02.275Z,61.55
2018-12-14T23:45:30.585Z,62.64
2018-12-14T23:47:59.237Z,61.59
2018-12-14T23:50:27.536Z,61.73
2018-12-14T23:52:55.836Z,61.13
2018-12-14T23:55:24.449Z,60.75
2018-12-14T23:57:52.671Z,61.21
